createdAt,value
2023-05-10T00:00:30.093Z,2.03
2023-05-10T00:02:57.803Z,1.92
2023-05-10T00:05:24.876Z,2.08
2023-05-10T00:07:51.945Z,2.17
2023-05-10T00:10:19.346Z,2.08
2023-05-10T00:12:46.462Z,2.05
2023-05-10T00:15:13.584Z,2.20
2023-05-10T00:17:40.984Z,2.22
2023-05-10T00:20:08.740Z,2.22
2023-05-10T00:22:35.861Z,2.25
2023-05-10T00:25:02.925Z,2.33
2023-05-10T00:27:29.983Z,2.28
2023-05-10T00:29:57.072Z,1.98
2023-05-10T00:32:24.181Z,2.05
2023-05-10T00:34:51.823Z,1.95
2023-05-10T00:37:18.861Z,2.00
2023-05-10T00:39:46.105Z,2.15
2023-05-10T00:42:13.196Z,2.28
2023-05-10T00:44:40.259Z,2.28
2023-05-10T00:47:07.966Z,2.22
2023-05-10T00:49:36.314Z,2.35
2023-05-10T00:52:04.143Z,2.28
2023-05-10T00:54:31.679Z,2.42
2023-05-10T00:56:59.821Z,2.60
2023-05-10T00:59:27.037Z,2.03
2023-05-10T01:01:54.932Z,2.05
2023-05-10T01:04:26.549Z,2.20
2023-05-10T01:06:54.766Z,2.17
2023-05-10T01:09:23.059Z,2.40
2023-05-10T01:11:50.946Z,2.33
2023-05-10T01:14:20.864Z,2.13
2023-05-10T01:16:50.340Z,2.25
2023-05-10T01:19:25.478Z,2.67
2023-05-10T01:22:25.515Z,2.35
2023-05-10T01:25:48.143Z,2.30
2023-05-10T01:28:29.504Z,2.53
2023-05-10T01:31:50.156Z,2.35
2023-05-10T01:34:34.682Z,2.08
2023-05-10T01:37:12.004Z,2.15
2023-05-10T01:39:54.003Z,2.13
2023-05-10T01:42:33.478Z,1.67
2023-05-10T01:45:11.432Z,2.28
2023-05-10T01:47:45.253Z,2.17
2023-05-10T01:50:19.664Z,2.13
2023-05-10T01:52:55.820Z,2.38
2023-05-10T01:55:27.671Z,2.10
2023-05-10T01:58:06.037Z,2.20
2023-05-10T02:00:34.650Z,2.10
2023-05-10T02:03:07.587Z,1.95
2023-05-10T02:05:35.607Z,2.17
2023-05-10T02:08:07.277Z,2.35
2023-05-10T02:10:36.461Z,2.15
2023-05-10T02:13:04.570Z,2.03
2023-05-10T02:15:32.582Z,2.63
2023-05-10T02:18:01.938Z,2.35
2023-05-10T02:20:30.287Z,2.70
2023-05-10T02:22:58.491Z,1.95
2023-05-10T02:25:27.445Z,2.00
2023-05-10T02:27:59.489Z,2.10
2023-05-10T02:30:27.494Z,2.35
2023-05-10T02:32:55.928Z,2.35
2023-05-10T02:35:24.240Z,2.38
2023-05-10T02:37:52.398Z,2.65
2023-05-10T02:40:21.020Z,2.45
2023-05-10T02:42:50.076Z,2.55
2023-05-10T02:45:22.237Z,2.25
2023-05-10T02:47:49.997Z,2.20
2023-05-10T02:50:17.340Z,2.60
2023-05-10T02:52:49.377Z,2.40
2023-05-10T02:55:17.926Z,2.53
2023-05-10T02:57:53.322Z,2.70
2023-05-10T03:00:20.757Z,2.97
2023-05-10T03:02:48.540Z,2.58
2023-05-10T03:05:15.656Z,2.60
2023-05-10T03:07:42.941Z,2.58
2023-05-10T03:10:11.143Z,2.78
2023-05-10T03:13:14.237Z,2.67
2023-05-10T03:15:49.741Z,2.53
2023-05-10T03:18:24.966Z,2.58
2023-05-10T03:21:07.396Z,2.90
2023-05-10T03:23:52.319Z,2.78
2023-05-10T03:26:26.979Z,2.50
2023-05-10T03:28:54.993Z,2.50
2023-05-10T03:31:22.736Z,3.08
2023-05-10T03:33:51.774Z,2.72
2023-05-10T03:36:20.303Z,3.08
2023-05-10T03:38:47.406Z,3.03
2023-05-10T03:41:15.005Z,2.90
2023-05-10T03:43:42.652Z,2.67
2023-05-10T03:46:09.707Z,2.65
2023-05-10T03:48:36.747Z,2.53
2023-05-10T03:51:03.995Z,2.70
2023-05-10T03:53:31.139Z,2.70
2023-05-10T03:55:58.206Z,2.80
2023-05-10T03:58:25.405Z,2.63
2023-05-10T04:00:53.342Z,2.58
2023-05-10T04:03:21.364Z,2.53
2023-05-10T04:05:48.822Z,2.63
2023-05-10T04:08:17.511Z,3.10
2023-05-10T04:10:44.978Z,3.00
2023-05-10T04:13:12.321Z,2.85
2023-05-10T04:15:39.482Z,2.92
2023-05-10T04:18:08.820Z,3.15
2023-05-10T04:20:36.214Z,3.40
2023-05-10T04:23:03.455Z,2.47
2023-05-10T04:25:30.794Z,2.83
2023-05-10T04:27:58.007Z,2.92
2023-05-10T04:30:25.075Z,2.90
2023-05-10T04:32:52.205Z,2.70
2023-05-10T04:35:19.298Z,2.70
2023-05-10T04:37:46.350Z,3.00
2023-05-10T04:40:13.859Z,2.92
2023-05-10T04:42:45.457Z,2.70
2023-05-10T04:45:12.615Z,2.90
2023-05-10T04:47:39.854Z,2.67
2023-05-10T04:50:08.414Z,2.88
2023-05-10T04:52:35.635Z,3.20
2023-05-10T04:55:02.763Z,2.70
2023-05-10T04:57:29.802Z,2.63
2023-05-10T04:59:56.774Z,3.00
2023-05-10T05:02:24.736Z,2.75
2023-05-10T05:04:52.088Z,2.53
2023-05-10T05:07:19.248Z,2.25
2023-05-10T05:09:46.320Z,2.05
2023-05-10T05:12:15.352Z,2.38
2023-05-10T05:14:42.544Z,2.25
2023-05-10T05:17:09.878Z,1.90
2023-05-10T05:19:36.887Z,1.77
2023-05-10T05:22:03.954Z,1.85
2023-05-10T05:24:36.812Z,1.90
2023-05-10T05:27:03.867Z,1.27
2023-05-10T05:29:30.978Z,1.35
2023-05-10T05:31:58.158Z,1.00
2023-05-10T05:34:25.407Z,0.70
2023-05-10T05:36:52.912Z,0.68
2023-05-10T05:39:19.939Z,0.50
2023-05-10T05:41:47.452Z,0.82
2023-05-10T05:44:14.668Z,1.40
2023-05-10T05:46:41.738Z,1.60
2023-05-10T05:49:08.781Z,2.08
2023-05-10T05:51:36.613Z,1.90
2023-05-10T05:54:05.397Z,1.83
2023-05-10T05:56:32.539Z,1.75
2023-05-10T05:58:59.640Z,1.83
2023-05-10T06:01:26.701Z,1.20
2023-05-10T06:03:54.097Z,1.05
2023-05-10T06:06:21.284Z,0.75
2023-05-10T06:08:48.321Z,0.57
2023-05-10T06:11:15.716Z,0.35
2023-05-10T06:13:43.436Z,0.30
2023-05-10T06:16:10.512Z,0.17
2023-05-10T06:18:38.168Z,0.20
2023-05-10T06:21:05.410Z,0.20
2023-05-10T06:23:32.558Z,0.10
2023-05-10T06:25:59.620Z,0.10
2023-05-10T06:28:26.771Z,0.15
2023-05-10T06:30:53.881Z,0.10
2023-05-10T06:33:20.903Z,0.13
2023-05-10T06:35:48.099Z,0.05
2023-05-10T06:38:15.352Z,0.15
2023-05-10T06:40:45.200Z,0.13
2023-05-10T06:43:12.273Z,0.08
2023-05-10T06:45:39.275Z,0.20
2023-05-10T06:48:06.600Z,0.10
2023-05-10T06:50:34.237Z,0.10
2023-05-10T06:53:02.857Z,0.10
2023-05-10T06:55:30.290Z,0.10
2023-05-10T06:57:57.508Z,0.10
2023-05-10T07:00:24.593Z,0.17
2023-05-10T07:02:52.180Z,0.50
2023-05-10T07:05:20.039Z,0.10
2023-05-10T07:07:47.309Z,0.20
2023-05-10T07:10:14.460Z,0.10
2023-05-10T07:12:41.658Z,0.10
2023-05-10T07:15:09.962Z,0.10
2023-05-10T07:17:37.080Z,0.20
2023-05-10T07:20:04.693Z,0.20
2023-05-10T07:22:31.728Z,0.10
2023-05-10T07:24:58.962Z,0.10
2023-05-10T07:27:26.433Z,0.10
2023-05-10T07:29:53.560Z,0.20
2023-05-10T07:32:20.593Z,0.05
2023-05-10T07:34:47.675Z,0.00
2023-05-10T07:37:14.791Z,0.10
2023-05-10T07:39:41.821Z,0.10
2023-05-10T07:42:09.562Z,0.03
2023-05-10T07:44:36.726Z,0.10
2023-05-10T07:47:03.813Z,0.10
2023-05-10T07:49:30.865Z,0.10
2023-05-10T07:51:57.921Z,0.10
2023-05-10T07:54:25.043Z,0.13
2023-05-10T07:56:52.378Z,0.20
2023-05-10T07:59:19.629Z,0.05
2023-05-10T08:01:47.064Z,0.10
2023-05-10T08:04:14.247Z,0.10
2023-05-10T08:06:41.850Z,0.10
2023-05-10T08:09:09.544Z,0.38
2023-05-10T08:11:36.656Z,0.30
2023-05-10T08:14:03.898Z,0.40
2023-05-10T08:16:31.011Z,0.40
2023-05-10T08:18:58.174Z,0.30
2023-05-10T08:21:27.157Z,0.25
2023-05-10T08:23:54.417Z,0.30
2023-05-10T08:26:22.471Z,0.30
2023-05-10T08:28:49.676Z,0.20
2023-05-10T08:31:17.985Z,0.30
2023-05-10T08:33:45.149Z,0.50
2023-05-10T08:36:15.174Z,0.35
2023-05-10T08:38:42.285Z,0.40
2023-05-10T08:41:09.963Z,0.47
2023-05-10T08:43:38.622Z,0.35
2023-05-10T08:46:08.075Z,0.73
2023-05-10T08:48:36.548Z,0.50
2023-05-10T08:51:05.637Z,0.40
2023-05-10T08:53:36.498Z,0.30
2023-05-10T08:56:04.807Z,0.38
2023-05-10T08:58:32.897Z,0.40
2023-05-10T09:01:01.452Z,0.50
2023-05-10T09:03:28.620Z,0.50
2023-05-10T09:05:59.207Z,0.50
2023-05-10T09:08:27.531Z,0.50
2023-05-10T09:10:56.342Z,0.40
2023-05-10T09:13:25.081Z,0.50
2023-05-10T09:15:53.127Z,0.40
2023-05-10T09:18:20.351Z,0.38
2023-05-10T09:20:47.569Z,0.50
2023-05-10T09:23:14.840Z,0.47
2023-05-10T09:25:43.411Z,0.40
2023-05-10T09:28:10.965Z,0.40
2023-05-10T09:30:38.358Z,0.30
2023-05-10T09:33:05.529Z,0.20
2023-05-10T09:35:34.731Z,0.30
2023-05-10T09:38:05.976Z,0.22
2023-05-10T09:40:33.425Z,0.30
2023-05-10T09:43:03.092Z,0.30
2023-05-10T09:45:32.764Z,0.35
2023-05-10T09:48:03.250Z,0.25
2023-05-10T09:50:34.884Z,0.40
2023-05-10T09:53:04.889Z,0.25
2023-05-10T09:55:47.671Z,0.30
2023-05-10T09:58:15.689Z,0.30
2023-05-10T10:00:52.574Z,0.40
2023-05-10T10:03:22.178Z,0.40
2023-05-10T10:05:50.070Z,0.30
2023-05-10T10:08:18.774Z,0.20
2023-05-10T10:10:47.522Z,0.20
2023-05-10T10:13:16.186Z,0.15
2023-05-10T10:15:45.215Z,0.10
2023-05-10T10:18:18.418Z,0.20
2023-05-10T10:20:46.072Z,0.20
2023-05-10T10:23:14.182Z,0.13
2023-05-10T10:25:43.319Z,0.20
2023-05-10T10:28:50.215Z,0.20
2023-05-10T10:31:37.987Z,0.10
2023-05-10T10:34:12.276Z,0.20
2023-05-10T10:36:47.134Z,0.22
2023-05-10T10:39:15.076Z,0.40
2023-05-10T10:41:53.894Z,0.30
2023-05-10T10:44:26.545Z,0.38
2023-05-10T10:47:12.851Z,0.20
2023-05-10T10:49:44.200Z,0.20
2023-05-10T10:52:36.822Z,0.30
2023-05-10T10:55:19.394Z,0.30
2023-05-10T10:58:01.611Z,0.20
2023-05-10T11:00:31.972Z,0.20
2023-05-10T11:03:11.809Z,0.30
2023-05-10T11:05:44.597Z,0.28
2023-05-10T11:08:27.907Z,0.20
2023-05-10T11:11:01.014Z,0.20
2023-05-10T11:13:36.146Z,0.10
2023-05-10T11:16:21.048Z,0.10
2023-05-10T11:19:10.992Z,0.20
2023-05-10T11:21:53.592Z,0.32
2023-05-10T11:24:24.287Z,0.40
2023-05-10T11:26:54.900Z,0.22
2023-05-10T11:29:22.162Z,0.30
2023-05-10T11:31:50.876Z,0.38
2023-05-10T11:34:29.337Z,0.32
2023-05-10T11:36:57.838Z,0.40
2023-05-10T11:39:32.976Z,0.38
2023-05-10T11:42:00.547Z,0.20
2023-05-10T11:44:32.626Z,0.20
2023-05-10T11:47:04.222Z,0.20
2023-05-10T11:49:31.528Z,0.20
2023-05-10T11:52:12.606Z,0.30
2023-05-10T11:54:47.474Z,0.25
2023-05-10T11:57:14.592Z,0.40
2023-05-10T11:59:43.087Z,0.35
2023-05-10T12:02:11.293Z,0.30
2023-05-10T12:04:38.773Z,0.30
2023-05-10T12:07:06.303Z,0.30
2023-05-10T12:09:43.095Z,0.30
2023-05-10T12:12:12.520Z,0.40
2023-05-10T12:14:39.537Z,0.40
2023-05-10T12:17:06.545Z,0.40
2023-05-10T12:19:42.440Z,0.35
2023-05-10T12:22:09.529Z,0.40
2023-05-10T12:24:39.117Z,0.30
2023-05-10T12:27:09.345Z,0.40
2023-05-10T12:29:36.703Z,0.50
2023-05-10T12:32:03.999Z,0.30
2023-05-10T12:34:40.101Z,0.55
2023-05-10T12:37:07.206Z,0.50
2023-05-10T12:39:45.017Z,0.55
2023-05-10T12:42:12.394Z,0.40
2023-05-10T12:44:40.961Z,0.35
2023-05-10T12:47:08.566Z,0.47
2023-05-10T12:49:35.710Z,0.40
2023-05-10T12:52:02.994Z,0.40
2023-05-10T12:54:30.472Z,0.50
2023-05-10T12:56:57.640Z,0.55
2023-05-10T12:59:24.814Z,0.50
2023-05-10T13:01:51.854Z,0.40
2023-05-10T13:04:18.935Z,0.30
2023-05-10T13:06:46.160Z,0.38
2023-05-10T13:09:13.176Z,0.30
2023-05-10T13:11:40.243Z,0.40
2023-05-10T13:14:07.289Z,0.28
2023-05-10T13:16:34.615Z,0.30
2023-05-10T13:19:01.806Z,0.20
2023-05-10T13:21:29.385Z,0.20
2023-05-10T13:23:56.658Z,0.20
2023-05-10T13:26:23.726Z,0.20
2023-05-10T13:28:52.808Z,0.40
2023-05-10T13:31:20.043Z,0.35
2023-05-10T13:33:47.231Z,0.70
2023-05-10T13:36:14.317Z,0.20
2023-05-10T13:38:41.384Z,0.40
2023-05-10T13:41:08.732Z,0.43
2023-05-10T13:43:36.124Z,0.60
2023-05-10T13:46:03.984Z,0.50
2023-05-10T13:48:31.074Z,0.60
2023-05-10T13:50:58.386Z,0.50
2023-05-10T13:53:25.694Z,0.40
2023-05-10T13:55:52.836Z,0.47
2023-05-10T13:58:20.323Z,0.60
2023-05-10T14:00:47.486Z,0.43
2023-05-10T14:03:14.638Z,0.30
2023-05-10T14:05:42.042Z,0.30
2023-05-10T14:08:10.481Z,0.57
2023-05-10T14:10:38.028Z,0.45
2023-05-10T14:13:05.245Z,0.43
2023-05-10T14:15:32.284Z,0.32
2023-05-10T14:17:59.481Z,0.50
2023-05-10T14:20:27.111Z,0.40
2023-05-10T14:22:54.289Z,0.30
2023-05-10T14:25:21.361Z,0.40
2023-05-10T14:27:48.872Z,0.40
2023-05-10T14:30:16.222Z,0.35
2023-05-10T14:32:43.524Z,0.30
2023-05-10T14:35:13.106Z,0.40
2023-05-10T14:37:40.632Z,0.30
2023-05-10T14:40:08.757Z,4.90
2023-05-10T14:42:36.174Z,3.58
2023-05-10T14:45:04.284Z,2.22
2023-05-10T14:47:31.582Z,1.58
2023-05-10T14:49:59.309Z,0.90
2023-05-10T14:52:26.997Z,0.60
2023-05-10T14:54:54.545Z,0.40
2023-05-10T14:57:21.592Z,0.40
2023-05-10T14:59:49.068Z,0.40
2023-05-10T15:02:17.324Z,0.35
2023-05-10T15:04:44.947Z,0.40
2023-05-10T15:07:15.361Z,0.50
2023-05-10T15:09:42.478Z,0.55
2023-05-10T15:12:09.515Z,1.02
2023-05-10T15:14:37.417Z,0.90
2023-05-10T15:17:07.121Z,1.05
2023-05-10T15:19:34.412Z,0.80
2023-05-10T15:22:01.469Z,0.70
2023-05-10T15:24:28.517Z,0.40
2023-05-10T15:26:56.352Z,0.40
2023-05-10T15:29:23.531Z,0.45
2023-05-10T15:31:52.095Z,0.70
2023-05-10T15:34:20.073Z,0.40
2023-05-10T15:36:47.246Z,0.55
2023-05-10T15:39:14.392Z,0.50
2023-05-10T15:41:41.640Z,0.55
2023-05-10T15:44:08.829Z,0.47
2023-05-10T15:46:36.230Z,0.50
2023-05-10T15:49:03.922Z,0.50
2023-05-10T15:51:31.095Z,0.30
2023-05-10T15:54:07.233Z,0.30
